Terminal Aerodrome Forecast
Issued by NWS

Home | Current Version | Previous Version | Text Only | Print | Product List | Glossary On
Versions: 1 2 3 4 5 6 7 8 9 10 11 12 13 14 15
000
FTUS45 KGJT 242340
TAFEGE
TAF
KEGE 242340Z 2500/2524 22020G30KT P6SM FEW110 SCT200
     FM250500 18011KT P6SM FEW250
     FM250800 17007KT P6SM FEW250
     FM251500 20009KT P6SM FEW250
     FM251700 23012KT P6SM FEW250
      AMD LTD TO CLD VIS AND WIND 2501/2513=

USA.gov is the U.S. government's official web portal to all federal, state and local government web resources and services.